Airfield :
LOGIN :

Register | Disclaimer

   EN    FR    IT 

 










Legend :    VFR   Marginal VFR   IFR   Intensive IFR   Very Intensive IFR
Visi :
Ceiling :
>= 8 km
>= 3000ft
5 to 8 km
1000 to 3000 ft
1500m to 5 km
500 to 1000 ft
800 to 1500m
200 to 500 ft
< 800m
< 200 ft
Symbols :   Thunderstorms  Fog  Heavy snow  Heavy precipitations  Wind > 20 kt
SIGMETs :     Misc.  Thunderstorms  Icing  Turbulence  Mountain Waves  Volcanic Ashes







- Airport Elevation : 1249 ft


ETSN - Neuburg AB

CURRENT METAR :
  • 220020Z 24007KT 5000 RA BR SCT010 BKN028 10/09 Q1019 WHT

EXPIRED METARs :
  • 212339Z 24007KT 4000 RA BR BKN010 BKN028 10/09 Q1019 GRN
  • 212320Z 24009KT 6000 -RA BKN019 BKN050 10/09 Q1019 WHT
  • 212220Z 27005KT 9999 -RA SCT012 BKN045 11/09 Q1017 BLU

TAF TAF ETSN
Valid from the 21 at 23:00 until the 22 at 08:00 UTC


212215Z 2123/2208 20010KT 9999 NSW SCT030 BKN120
TEMPO 2123/2208 24012KT 4000 SHRA BKN012 BKN030TCU BY ETGL
No reported NOTAMs for that airfield.



MET'MAP, your aeronautical weather chart ! - Copyright ORBIFLY December 2007 - Disclaimer

ORBIFLY MET'MAP TEAM :

Programming & Development : Alexandra Zaïnal
Concept & Development : Baudouin d'Aumeries
Co-Development & Prog : Marc-Olivier Méhu
Technical & hardware support : Manuel Goepfert

Contact : metmap@orbifly.com




SOURCES & CREDITS :

   NOAA